• Join FlightAware (Why Join?)
  • Login
  • US Flag 
07:08AM EDT


 

Airport Tracker/Info


-or-


 

Live Flight TrackerFlight Track Log ✈ LIA565 ✈ 17-May-2013 ✈ TDPD / DOM - TBPB / BGI

Flight Track Log - Related Links

Times and Time Zones

All times are in EDT time to prevent confusion due to time zone crossing. See the LIA565 flight status page for this flight to view local times or setup timezone preferences in your user account.

Time Position Orientation Groundspeed Altitude Reporting Facility
EDT Latitude Longitude Course Direction KTS MPH feet Rate Location/Type
04:59PM 14.8602 -60.7928 144° Southeast  Level Estimated
05:00PM 14.7915 -60.7423 145° Southeast  Level Estimated
05:01PM 14.7227 -60.6918 145° Southeast  Level Estimated
05:02PM 14.6539 -60.6413 145° Southeast  Level Estimated
05:03PM 14.5852 -60.5908 145° Southeast  Level Estimated
05:04PM 14.5164 -60.5404 145° Southeast  Level Estimated
05:05PM 14.4476 -60.4901 145° Southeast  Level Estimated
05:06PM 14.3788 -60.4397 145° Southeast  Level Estimated
05:07PM 14.3099 -60.3894 145° Southeast  Level Estimated
05:08PM 14.2411 -60.3391 145° Southeast  Level Estimated
05:09PM 14.1723 -60.2888 145° Southeast  Level Estimated
05:10PM 14.1034 -60.2386 145° Southeast  Level Estimated
05:11PM 14.0346 -60.1884 145° Southeast  Level Estimated
05:12PM 13.9657 -60.1382 145° Southeast  Level Estimated
05:13PM 13.8968 -60.0881 145° Southeast  Level Estimated
05:14PM 13.8279 -60.0380 145° Southeast  Level Estimated
05:15PM 13.7590 -59.9879 145° Southeast  Level Estimated
05:16PM 13.6901 -59.9379 145° Southeast  Level Estimated
05:17PM 13.6212 -59.8878 145° Southeast  Level Estimated
05:18PM 13.5523 -59.8378 145° Southeast  Level Estimated
05:19PM 13.4833 -59.7879 145° Southeast  Level Estimated
05:20PM 13.4144 -59.7379 145° Southeast  Level Estimated
05:21PM 13.3454 -59.6880 145° Southeast  Level Estimated
05:22PM 13.2764 -59.6382 145° Southeast  Level Estimated
05:23PM 13.2074 -59.5883 145° Southeast  Level Estimated
05:24PM 13.1385 -59.5385 145° Southeast  Level Estimated
05:25PM 13.0746 -59.4925 145° Southeast  Level Estimated
05:26PM 13.0746 -59.4925 52° Northeast  Level Estimated
05:27PM 13.0746 -59.4925 52° Northeast  Level Estimated
05:28PM 13.0746 -59.4925 52° Northeast  Level Estimated
05:29PM 13.0746 -59.4925 52° Northeast  Level Estimated
05:30PM 13.0746 -59.4925 52° Northeast  Level Estimated
05:31PM 13.0746 -59.4925 52° Northeast  Level Estimated
05:32PM 13.0746 -59.4925 52° Northeast  Level Estimated
05:33PM 13.0746 -59.4925 52° Northeast  Level Estimated
05:34PM 13.0746 -59.4925 52° Northeast  Level Estimated
05:35PM 13.0746 -59.4925 52° Northeast  Level Estimated
05:36PM 13.0746 -59.4925 52° Northeast  Level Estimated
05:37PM 13.0746 -59.4925 52° Northeast  Level Estimated
05:38PM 13.0746 -59.4925 52° Northeast  Level Estimated
05:39PM 13.0746 -59.4925 52° Northeast  Level Estimated
05:40PM 13.0746 -59.4925 52° Northeast  Level Estimated
05:41PM 13.0746 -59.4925 52° Northeast  Level Estimated